Impacts METAR Board
IDs:

KTPA - Tampa Intl Arpt, FL, US

Updated at: 1000 UTC 30 Oct 2020
Potential Impact None Slight Moderate High
Time 29/22Z 29/23Z 30/00Z 30/01Z 30/02Z 30/03Z 30/04Z 30/05Z 30/06Z 30/07Z 30/08Z 30/09Z 30/10Z
Temp85 83 78 79 80 78 78 77 77 76 74 73 73
Dewpt73 72 72 72 73 71 71 68 64 65 63 63 62
Altim29.87 29.87 29.89 29.90 29.91 29.91 29.93 29.93 29.93 29.93 29.93 29.92 29.94
VIS10 10 10 10 10 10 10 10 10 10 10 10 10
CIG-- -- 80 -- 23 100 19 25 31 70 -- -- --
CoverSCTSCTOVCFEWOVCBKNOVCOVCOVCBKNCLRCLRFEW
FltCatVFRVFRVFRVFRMVFRVFRMVFRMVFRVFRVFRVFRVFRVFR
WX--------------------------
WDir2202102002102102303203103103203203200
WSpd11 10 10 6 8 7 7 5 8 7 6 4 0
WGst-- -- -- -- -- -- -- -- -- -- -- -- --
Raw hourly METARs
KTPA 292153Z 22011KT 10SM SCT026TCU 29/23 A2987 RMK AO2 SLP113 TCU SW-N T02940228
KTPA 292253Z 21010KT 10SM FEW024 SCT035TCU SCT050 28/22 A2987 RMK AO2 SLP114 TCU SW-N VCSH SW-N T02830222
KTPA 292353Z 20010KT 10SM SCT055 OVC080 26/22 A2989 RMK AO2 PK WND 26026/2304 RAB07E41 SLP120 P0007 60007 T02560222 10311 20256 53008
KTPA 300053Z 21006KT 10SM FEW100 26/22 A2990 RMK AO2 SLP124 T02610222
KTPA 300153Z 21008KT 10SM BKN023 BKN031 OVC090 27/23 A2991 RMK AO2 SLP127 T02670228
KTPA 300253Z 23007KT 10SM FEW020 BKN100 26/22 A2991 RMK AO2 RAB0159E13 SLP129 P0002 60002 T02560217 51009
KTPA 300353Z 32007KT 10SM OVC019 26/22 A2993 RMK AO2 RAB28E51 SLP134 P0001 T02560217
KTPA 300453Z 31005KT 10SM OVC025 25/20 A2993 RMK AO2 SLP136 T02500200 403110250
KTPA 300553Z 31008KT 10SM OVC031 25/18 A2993 RMK AO2 SLP135 60003 T02500178 10267 20250 50007
KTPA 300653Z 32007KT 10SM FEW042 SCT050 BKN070 24/18 A2993 RMK AO2 SLP135 T02440183
KTPA 300753Z 32006KT 10SM CLR 23/17 A2993 RMK AO2 SLP134 T02330172
KTPA 300853Z 32004KT 10SM CLR 23/17 A2992 RMK AO2 SLP133 T02280172 58003
KTPA 300953Z 00000KT 10SM FEW200 23/17 A2994 RMK AO2 SLP139 T02280167



Page loaded:  10:19 UTC  |   03:19 AM Pacific  |   04:19 AM Mountain  |   05:19 AM Central  |   06:19 AM Eastern

 

ADVISORIES

FORECASTS

FORECASTS

OBSERVATIONS

USER TOOLS

ABOUT US